sensor_id;sensor_type;location;lat;lon;timestamp;P1;durP1;ratioP1;P2;durP2;ratioP2
47617;SDS011;33336;36.728;-4.414;2024-01-27T00:03:27;5.63;;;3.72;;
47617;SDS011;33336;36.728;-4.414;2024-01-27T00:08:31;6.07;;;3.35;;
47617;SDS011;33336;36.728;-4.414;2024-01-27T00:13:35;6.15;;;3.40;;
47617;SDS011;33336;36.728;-4.414;2024-01-27T00:18:39;7.28;;;3.08;;
47617;SDS011;33336;36.728;-4.414;2024-01-27T00:23:42;4.97;;;3.25;;
47617;SDS011;33336;36.728;-4.414;2024-01-27T00:28:47;3.90;;;2.17;;
47617;SDS011;33336;36.728;-4.414;2024-01-27T00:33:50;4.30;;;2.40;;
47617;SDS011;33336;36.728;-4.414;2024-01-27T00:38:54;5.82;;;2.92;;
47617;SDS011;33336;36.728;-4.414;2024-01-27T00:43:58;6.63;;;3.28;;
47617;SDS011;33336;36.728;-4.414;2024-01-27T00:49:01;3.70;;;2.95;;
47617;SDS011;33336;36.728;-4.414;2024-01-27T00:54:04;4.20;;;3.08;;
47617;SDS011;33336;36.728;-4.414;2024-01-27T00:59:09;4.03;;;2.70;;
47617;SDS011;33336;36.728;-4.414;2024-01-27T01:04:13;4.93;;;3.00;;
47617;SDS011;33336;36.728;-4.414;2024-01-27T01:09:18;4.45;;;2.72;;
47617;SDS011;33336;36.728;-4.414;2024-01-27T01:14:22;3.60;;;2.30;;
47617;SDS011;33336;36.728;-4.414;2024-01-27T01:19:26;5.68;;;2.47;;
47617;SDS011;33336;36.728;-4.414;2024-01-27T01:24:29;7.25;;;2.70;;
47617;SDS011;33336;36.728;-4.414;2024-01-27T01:29:34;3.92;;;2.50;;
47617;SDS011;33336;36.728;-4.414;2024-01-27T01:34:37;4.47;;;1.95;;
47617;SDS011;33336;36.728;-4.414;2024-01-27T01:39:41;6.03;;;2.47;;
47617;SDS011;33336;36.728;-4.414;2024-01-27T01:44:45;4.40;;;2.10;;
47617;SDS011;33336;36.728;-4.414;2024-01-27T01:49:49;2.53;;;2.05;;
47617;SDS011;33336;36.728;-4.414;2024-01-27T01:54:52;3.08;;;1.80;;
47617;SDS011;33336;36.728;-4.414;2024-01-27T01:59:57;4.55;;;2.08;;
47617;SDS011;33336;36.728;-4.414;2024-01-27T02:05:01;2.72;;;1.80;;
47617;SDS011;33336;36.728;-4.414;2024-01-27T02:10:05;2.38;;;2.00;;
47617;SDS011;33336;36.728;-4.414;2024-01-27T02:15:15;5.50;;;2.22;;
47617;SDS011;33336;36.728;-4.414;2024-01-27T02:20:19;2.95;;;2.35;;
47617;SDS011;33336;36.728;-4.414;2024-01-27T02:25:23;4.63;;;2.97;;
47617;SDS011;33336;36.728;-4.414;2024-01-27T02:30:27;6.15;;;3.20;;
47617;SDS011;33336;36.728;-4.414;2024-01-27T02:35:29;6.13;;;2.42;;
47617;SDS011;33336;36.728;-4.414;2024-01-27T02:40:34;2.58;;;2.17;;
47617;SDS011;33336;36.728;-4.414;2024-01-27T02:45:37;2.83;;;2.05;;
47617;SDS011;33336;36.728;-4.414;2024-01-27T02:50:41;2.83;;;1.90;;
47617;SDS011;33336;36.728;-4.414;2024-01-27T02:55:45;4.28;;;1.80;;
47617;SDS011;33336;36.728;-4.414;2024-01-27T03:00:49;4.50;;;1.50;;
47617;SDS011;33336;36.728;-4.414;2024-01-27T03:05:51;4.50;;;1.63;;
47617;SDS011;33336;36.728;-4.414;2024-01-27T03:10:56;5.30;;;1.65;;
47617;SDS011;33336;36.728;-4.414;2024-01-27T03:15:59;3.13;;;1.48;;
47617;SDS011;33336;36.728;-4.414;2024-01-27T03:21:03;2.58;;;1.38;;
47617;SDS011;33336;36.728;-4.414;2024-01-27T03:26:09;1.52;;;1.33;;
47617;SDS011;33336;36.728;-4.414;2024-01-27T03:31:12;3.00;;;1.10;;
47617;SDS011;33336;36.728;-4.414;2024-01-27T03:36:14;1.92;;;1.13;;
47617;SDS011;33336;36.728;-4.414;2024-01-27T03:41:20;1.50;;;1.10;;
47617;SDS011;33336;36.728;-4.414;2024-01-27T03:46:23;6.88;;;1.38;;
47617;SDS011;33336;36.728;-4.414;2024-01-27T03:51:26;2.88;;;1.27;;
47617;SDS011;33336;36.728;-4.414;2024-01-27T03:56:31;4.80;;;2.20;;
47617;SDS011;33336;36.728;-4.414;2024-01-27T04:01:34;2.08;;;1.30;;
47617;SDS011;33336;36.728;-4.414;2024-01-27T04:06:37;3.55;;;1.48;;
47617;SDS011;33336;36.728;-4.414;2024-01-27T04:11:42;2.45;;;1.45;;
47617;SDS011;33336;36.728;-4.414;2024-01-27T04:16:45;4.55;;;1.38;;
47617;SDS011;33336;36.728;-4.414;2024-01-27T04:21:49;2.42;;;1.40;;
47617;SDS011;33336;36.728;-4.414;2024-01-27T04:26:53;3.63;;;1.23;;
47617;SDS011;33336;36.728;-4.414;2024-01-27T04:31:57;1.83;;;1.17;;
47617;SDS011;33336;36.728;-4.414;2024-01-27T04:36:59;6.28;;;1.60;;
47617;SDS011;33336;36.728;-4.414;2024-01-27T04:42:04;2.63;;;1.58;;
47617;SDS011;33336;36.728;-4.414;2024-01-27T04:47:07;2.92;;;1.10;;
47617;SDS011;33336;36.728;-4.414;2024-01-27T04:52:11;4.75;;;1.33;;
47617;SDS011;33336;36.728;-4.414;2024-01-27T04:57:15;2.55;;;0.90;;
47617;SDS011;33336;36.728;-4.414;2024-01-27T05:02:19;1.85;;;1.02;;
47617;SDS011;33336;36.728;-4.414;2024-01-27T05:07:21;0.77;;;0.73;;
47617;SDS011;33336;36.728;-4.414;2024-01-27T05:12:26;4.90;;;1.60;;
47617;SDS011;33336;36.728;-4.414;2024-01-27T05:17:29;1.35;;;1.25;;
47617;SDS011;33336;36.728;-4.414;2024-01-27T05:22:33;2.80;;;1.23;;
47617;SDS011;33336;36.728;-4.414;2024-01-27T05:27:38;4.53;;;2.10;;
47617;SDS011;33336;36.728;-4.414;2024-01-27T05:32:41;1.95;;;1.30;;
47617;SDS011;33336;36.728;-4.414;2024-01-27T05:37:44;2.92;;;1.42;;
47617;SDS011;33336;36.728;-4.414;2024-01-27T05:42:48;1.88;;;1.30;;
47617;SDS011;33336;36.728;-4.414;2024-01-27T05:47:51;3.10;;;1.40;;
47617;SDS011;33336;36.728;-4.414;2024-01-27T05:52:55;2.95;;;1.40;;
47617;SDS011;33336;36.728;-4.414;2024-01-27T05:57:59;1.48;;;1.05;;
47617;SDS011;33336;36.728;-4.414;2024-01-27T06:03:03;2.42;;;1.00;;
47617;SDS011;33336;36.728;-4.414;2024-01-27T06:08:06;3.72;;;1.48;;
47617;SDS011;33336;36.728;-4.414;2024-01-27T06:13:11;2.95;;;1.45;;
47617;SDS011;33336;36.728;-4.414;2024-01-27T06:18:14;2.80;;;1.23;;
47617;SDS011;33336;36.728;-4.414;2024-01-27T06:23:18;2.35;;;1.20;;
47617;SDS011;33336;36.728;-4.414;2024-01-27T06:28:22;4.28;;;0.95;;
47617;SDS011;33336;36.728;-4.414;2024-01-27T06:33:25;1.95;;;1.08;;
47617;SDS011;33336;36.728;-4.414;2024-01-27T06:38:27;2.47;;;1.00;;
47617;SDS011;33336;36.728;-4.414;2024-01-27T06:43:34;3.47;;;1.25;;
47617;SDS011;33336;36.728;-4.414;2024-01-27T06:48:37;1.70;;;0.88;;
47617;SDS011;33336;36.728;-4.414;2024-01-27T06:53:41;1.45;;;1.10;;
47617;SDS011;33336;36.728;-4.414;2024-01-27T06:58:45;2.05;;;1.38;;
47617;SDS011;33336;36.728;-4.414;2024-01-27T07:03:48;2.33;;;1.38;;
47617;SDS011;33336;36.728;-4.414;2024-01-27T07:08:50;2.05;;;1.17;;
47617;SDS011;33336;36.728;-4.414;2024-01-27T07:13:55;2.63;;;1.10;;
47617;SDS011;33336;36.728;-4.414;2024-01-27T07:18:59;4.47;;;1.42;;
47617;SDS011;33336;36.728;-4.414;2024-01-27T07:24:03;1.52;;;1.30;;
47617;SDS011;33336;36.728;-4.414;2024-01-27T07:29:07;3.90;;;1.23;;
47617;SDS011;33336;36.728;-4.414;2024-01-27T07:34:11;4.28;;;1.25;;
47617;SDS011;33336;36.728;-4.414;2024-01-27T07:39:13;4.88;;;1.20;;
47617;SDS011;33336;36.728;-4.414;2024-01-27T07:44:19;2.15;;;1.15;;
47617;SDS011;33336;36.728;-4.414;2024-01-27T07:49:22;2.42;;;1.20;;
47617;SDS011;33336;36.728;-4.414;2024-01-27T07:54:26;3.60;;;1.48;;
47617;SDS011;33336;36.728;-4.414;2024-01-27T07:59:31;4.45;;;1.70;;
47617;SDS011;33336;36.728;-4.414;2024-01-27T08:04:35;4.13;;;1.35;;
47617;SDS011;33336;36.728;-4.414;2024-01-27T08:09:37;5.45;;;1.48;;
47617;SDS011;33336;36.728;-4.414;2024-01-27T08:14:42;3.75;;;1.67;;
47617;SDS011;33336;36.728;-4.414;2024-01-27T08:19:45;3.67;;;2.40;;
47617;SDS011;33336;36.728;-4.414;2024-01-27T08:24:49;3.38;;;1.40;;
47617;SDS011;33336;36.728;-4.414;2024-01-27T08:29:53;11.15;;;2.75;;
47617;SDS011;33336;36.728;-4.414;2024-01-27T08:34:56;3.67;;;2.00;;
47617;SDS011;33336;36.728;-4.414;2024-01-27T08:39:59;7.65;;;2.60;;
47617;SDS011;33336;36.728;-4.414;2024-01-27T08:45:03;6.93;;;2.67;;
47617;SDS011;33336;36.728;-4.414;2024-01-27T08:50:07;8.82;;;3.40;;
47617;SDS011;33336;36.728;-4.414;2024-01-27T08:55:12;10.63;;;3.70;;
47617;SDS011;33336;36.728;-4.414;2024-01-27T09:00:17;8.85;;;4.00;;
47617;SDS011;33336;36.728;-4.414;2024-01-27T09:05:21;14.35;;;3.58;;
47617;SDS011;33336;36.728;-4.414;2024-01-27T09:10:24;5.82;;;3.00;;
47617;SDS011;33336;36.728;-4.414;2024-01-27T09:15:31;4.55;;;2.60;;
47617;SDS011;33336;36.728;-4.414;2024-01-27T09:20:34;9.27;;;3.47;;
47617;SDS011;33336;36.728;-4.414;2024-01-27T09:25:37;12.60;;;3.35;;
47617;SDS011;33336;36.728;-4.414;2024-01-27T09:30:42;10.23;;;3.90;;
47617;SDS011;33336;36.728;-4.414;2024-01-27T09:35:45;10.40;;;3.72;;
47617;SDS011;33336;36.728;-4.414;2024-01-27T09:40:49;9.23;;;2.78;;
47617;SDS011;33336;36.728;-4.414;2024-01-27T09:45:54;5.45;;;2.92;;
47617;SDS011;33336;36.728;-4.414;2024-01-27T09:50:58;8.10;;;3.55;;
47617;SDS011;33336;36.728;-4.414;2024-01-27T09:56:02;8.15;;;3.20;;
47617;SDS011;33336;36.728;-4.414;2024-01-27T10:01:06;4.28;;;2.50;;
47617;SDS011;33336;36.728;-4.414;2024-01-27T10:06:11;7.35;;;3.40;;
47617;SDS011;33336;36.728;-4.414;2024-01-27T10:11:15;6.05;;;2.80;;
47617;SDS011;33336;36.728;-4.414;2024-01-27T10:16:20;11.43;;;4.07;;
47617;SDS011;33336;36.728;-4.414;2024-01-27T10:21:23;9.73;;;3.72;;
47617;SDS011;33336;36.728;-4.414;2024-01-27T10:26:30;9.68;;;3.40;;
47617;SDS011;33336;36.728;-4.414;2024-01-27T10:31:35;9.33;;;3.17;;
47617;SDS011;33336;36.728;-4.414;2024-01-27T10:36:38;8.95;;;3.80;;
47617;SDS011;33336;36.728;-4.414;2024-01-27T10:41:44;7.78;;;2.90;;
47617;SDS011;33336;36.728;-4.414;2024-01-27T10:46:51;4.57;;;2.93;;
47617;SDS011;33336;36.728;-4.414;2024-01-27T10:51:56;8.25;;;3.08;;
47617;SDS011;33336;36.728;-4.414;2024-01-27T10:57:00;8.80;;;3.67;;
47617;SDS011;33336;36.728;-4.414;2024-01-27T11:02:05;5.63;;;3.20;;
47617;SDS011;33336;36.728;-4.414;2024-01-27T11:07:14;11.40;;;3.90;;
47617;SDS011;33336;36.728;-4.414;2024-01-27T11:12:18;9.98;;;4.07;;
47617;SDS011;33336;36.728;-4.414;2024-01-27T11:17:25;10.85;;;4.22;;
47617;SDS011;33336;36.728;-4.414;2024-01-27T11:22:28;9.75;;;4.10;;
47617;SDS011;33336;36.728;-4.414;2024-01-27T11:27:32;10.85;;;4.32;;
47617;SDS011;33336;36.728;-4.414;2024-01-27T11:32:37;10.48;;;5.15;;
47617;SDS011;33336;36.728;-4.414;2024-01-27T11:37:40;12.93;;;5.00;;
47617;SDS011;33336;36.728;-4.414;2024-01-27T11:42:44;10.32;;;5.25;;
47617;SDS011;33336;36.728;-4.414;2024-01-27T11:47:59;9.25;;;4.57;;
47617;SDS011;33336;36.728;-4.414;2024-01-27T11:53:02;9.98;;;5.00;;
47617;SDS011;33336;36.728;-4.414;2024-01-27T11:58:10;14.63;;;5.60;;
47617;SDS011;33336;36.728;-4.414;2024-01-27T12:03:15;9.23;;;5.07;;
47617;SDS011;33336;36.728;-4.414;2024-01-27T12:08:18;6.05;;;4.55;;
47617;SDS011;33336;36.728;-4.414;2024-01-27T12:13:21;9.90;;;3.83;;
47617;SDS011;33336;36.728;-4.414;2024-01-27T12:18:26;8.15;;;4.43;;
47617;SDS011;33336;36.728;-4.414;2024-01-27T12:23:30;6.82;;;4.35;;
47617;SDS011;33336;36.728;-4.414;2024-01-27T12:28:33;10.15;;;5.10;;
47617;SDS011;33336;36.728;-4.414;2024-01-27T12:33:39;10.70;;;4.43;;
47617;SDS011;33336;36.728;-4.414;2024-01-27T12:38:46;6.97;;;4.03;;
47617;SDS011;33336;36.728;-4.414;2024-01-27T12:43:51;13.87;;;4.83;;
47617;SDS011;33336;36.728;-4.414;2024-01-27T12:48:56;12.60;;;5.05;;
47617;SDS011;33336;36.728;-4.414;2024-01-27T12:53:59;11.48;;;4.20;;
47617;SDS011;33336;36.728;-4.414;2024-01-27T12:59:01;8.55;;;4.18;;
47617;SDS011;33336;36.728;-4.414;2024-01-27T13:04:07;12.30;;;4.13;;
47617;SDS011;33336;36.728;-4.414;2024-01-27T13:09:10;13.32;;;4.50;;
47617;SDS011;33336;36.728;-4.414;2024-01-27T13:14:14;6.57;;;4.00;;
47617;SDS011;33336;36.728;-4.414;2024-01-27T13:19:21;20.45;;;4.32;;
47617;SDS011;33336;36.728;-4.414;2024-01-27T13:24:24;10.40;;;4.70;;
47617;SDS011;33336;36.728;-4.414;2024-01-27T13:29:27;14.48;;;4.35;;
47617;SDS011;33336;36.728;-4.414;2024-01-27T13:34:32;14.20;;;6.45;;
47617;SDS011;33336;36.728;-4.414;2024-01-27T13:39:34;6.57;;;3.90;;
47617;SDS011;33336;36.728;-4.414;2024-01-27T13:44:38;8.57;;;3.92;;
47617;SDS011;33336;36.728;-4.414;2024-01-27T13:49:43;7.05;;;4.18;;
47617;SDS011;33336;36.728;-4.414;2024-01-27T13:54:46;10.15;;;4.50;;
47617;SDS011;33336;36.728;-4.414;2024-01-27T13:59:50;7.70;;;3.80;;
47617;SDS011;33336;36.728;-4.414;2024-01-27T14:04:55;8.75;;;4.28;;
47617;SDS011;33336;36.728;-4.414;2024-01-27T14:09:58;5.13;;;3.67;;
47617;SDS011;33336;36.728;-4.414;2024-01-27T14:15:02;9.10;;;4.30;;
47617;SDS011;33336;36.728;-4.414;2024-01-27T14:20:09;7.15;;;5.13;;
47617;SDS011;33336;36.728;-4.414;2024-01-27T14:25:14;11.27;;;3.97;;
47617;SDS011;33336;36.728;-4.414;2024-01-27T14:30:16;11.77;;;4.38;;
47617;SDS011;33336;36.728;-4.414;2024-01-27T14:35:21;7.35;;;4.15;;
47617;SDS011;33336;36.728;-4.414;2024-01-27T14:40:23;8.35;;;4.45;;
47617;SDS011;33336;36.728;-4.414;2024-01-27T14:45:27;9.73;;;3.75;;
47617;SDS011;33336;36.728;-4.414;2024-01-27T14:50:32;7.18;;;4.38;;
47617;SDS011;33336;36.728;-4.414;2024-01-27T14:55:35;7.53;;;3.60;;
47617;SDS011;33336;36.728;-4.414;2024-01-27T15:00:38;8.68;;;3.65;;
47617;SDS011;33336;36.728;-4.414;2024-01-27T15:05:43;10.05;;;4.20;;
47617;SDS011;33336;36.728;-4.414;2024-01-27T15:10:46;7.28;;;4.45;;
47617;SDS011;33336;36.728;-4.414;2024-01-27T15:15:49;6.88;;;3.63;;
47617;SDS011;33336;36.728;-4.414;2024-01-27T15:20:54;8.23;;;4.07;;
47617;SDS011;33336;36.728;-4.414;2024-01-27T15:25:58;7.40;;;4.03;;
47617;SDS011;33336;36.728;-4.414;2024-01-27T15:36:07;5.88;;;3.30;;
47617;SDS011;33336;36.728;-4.414;2024-01-27T15:41:10;8.43;;;4.13;;
47617;SDS011;33336;36.728;-4.414;2024-01-27T15:46:14;8.15;;;4.82;;
47617;SDS011;33336;36.728;-4.414;2024-01-27T15:51:19;8.73;;;3.58;;
47617;SDS011;33336;36.728;-4.414;2024-01-27T15:56:22;7.80;;;3.70;;
47617;SDS011;33336;36.728;-4.414;2024-01-27T16:01:26;7.75;;;3.40;;
47617;SDS011;33336;36.728;-4.414;2024-01-27T16:06:31;6.30;;;3.60;;
47617;SDS011;33336;36.728;-4.414;2024-01-27T16:11:34;8.02;;;3.72;;
47617;SDS011;33336;36.728;-4.414;2024-01-27T16:16:37;12.00;;;3.70;;
47617;SDS011;33336;36.728;-4.414;2024-01-27T16:21:42;5.95;;;3.30;;
47617;SDS011;33336;36.728;-4.414;2024-01-27T16:26:45;4.93;;;3.50;;
47617;SDS011;33336;36.728;-4.414;2024-01-27T16:31:48;6.70;;;3.40;;
47617;SDS011;33336;36.728;-4.414;2024-01-27T16:36:52;3.78;;;3.20;;
47617;SDS011;33336;36.728;-4.414;2024-01-27T16:41:55;7.88;;;4.18;;
47617;SDS011;33336;36.728;-4.414;2024-01-27T16:46:58;8.55;;;3.70;;
47617;SDS011;33336;36.728;-4.414;2024-01-27T16:52:04;9.15;;;4.22;;
47617;SDS011;33336;36.728;-4.414;2024-01-27T16:57:07;8.18;;;4.53;;
47617;SDS011;33336;36.728;-4.414;2024-01-27T17:02:10;10.57;;;4.88;;
47617;SDS011;33336;36.728;-4.414;2024-01-27T17:07:15;6.10;;;3.88;;
47617;SDS011;33336;36.728;-4.414;2024-01-27T17:12:18;10.48;;;4.25;;
47617;SDS011;33336;36.728;-4.414;2024-01-27T17:17:21;11.13;;;4.38;;
47617;SDS011;33336;36.728;-4.414;2024-01-27T17:22:27;7.80;;;4.85;;
47617;SDS011;33336;36.728;-4.414;2024-01-27T17:27:30;8.37;;;4.73;;
47617;SDS011;33336;36.728;-4.414;2024-01-27T17:32:33;5.88;;;4.20;;
47617;SDS011;33336;36.728;-4.414;2024-01-27T17:37:38;14.70;;;7.70;;
47617;SDS011;33336;36.728;-4.414;2024-01-27T17:42:42;7.35;;;5.07;;
47617;SDS011;33336;36.728;-4.414;2024-01-27T17:47:48;5.82;;;5.00;;
47617;SDS011;33336;36.728;-4.414;2024-01-27T17:52:55;6.13;;;4.93;;
47617;SDS011;33336;36.728;-4.414;2024-01-27T17:57:57;7.88;;;5.47;;
47617;SDS011;33336;36.728;-4.414;2024-01-27T18:03:00;9.75;;;6.40;;
47617;SDS011;33336;36.728;-4.414;2024-01-27T18:08:05;13.80;;;6.00;;
47617;SDS011;33336;36.728;-4.414;2024-01-27T18:13:08;8.10;;;5.65;;
47617;SDS011;33336;36.728;-4.414;2024-01-27T18:18:11;12.95;;;5.65;;
47617;SDS011;33336;36.728;-4.414;2024-01-27T18:23:17;13.85;;;6.63;;
47617;SDS011;33336;36.728;-4.414;2024-01-27T18:28:20;13.85;;;7.35;;
47617;SDS011;33336;36.728;-4.414;2024-01-27T18:33:23;15.68;;;7.63;;
47617;SDS011;33336;36.728;-4.414;2024-01-27T18:38:27;12.90;;;6.45;;
47617;SDS011;33336;36.728;-4.414;2024-01-27T18:43:30;10.93;;;6.43;;
47617;SDS011;33336;36.728;-4.414;2024-01-27T18:48:36;13.90;;;7.03;;
47617;SDS011;33336;36.728;-4.414;2024-01-27T18:53:42;15.43;;;7.32;;
47617;SDS011;33336;36.728;-4.414;2024-01-27T18:58:46;12.13;;;7.27;;
47617;SDS011;33336;36.728;-4.414;2024-01-27T19:03:49;16.55;;;8.55;;
47617;SDS011;33336;36.728;-4.414;2024-01-27T19:08:53;11.00;;;7.75;;
47617;SDS011;33336;36.728;-4.414;2024-01-27T19:13:56;11.68;;;8.82;;
47617;SDS011;33336;36.728;-4.414;2024-01-27T19:18:59;14.55;;;8.77;;
47617;SDS011;33336;36.728;-4.414;2024-01-27T19:24:06;15.38;;;11.27;;
47617;SDS011;33336;36.728;-4.414;2024-01-27T19:29:09;24.92;;;12.65;;
47617;SDS011;33336;36.728;-4.414;2024-01-27T19:34:12;18.83;;;10.32;;
47617;SDS011;33336;36.728;-4.414;2024-01-27T19:39:17;16.52;;;10.27;;
47617;SDS011;33336;36.728;-4.414;2024-01-27T19:44:20;15.02;;;10.00;;
47617;SDS011;33336;36.728;-4.414;2024-01-27T19:49:26;21.77;;;13.15;;
47617;SDS011;33336;36.728;-4.414;2024-01-27T19:54:31;17.17;;;11.13;;
47617;SDS011;33336;36.728;-4.414;2024-01-27T19:59:33;16.33;;;10.27;;
47617;SDS011;33336;36.728;-4.414;2024-01-27T20:04:38;13.80;;;9.48;;
47617;SDS011;33336;36.728;-4.414;2024-01-27T20:09:44;17.23;;;9.40;;
47617;SDS011;33336;36.728;-4.414;2024-01-27T20:14:47;19.73;;;10.90;;
47617;SDS011;33336;36.728;-4.414;2024-01-27T20:19:50;18.80;;;11.70;;
47617;SDS011;33336;36.728;-4.414;2024-01-27T20:24:56;16.25;;;11.18;;
47617;SDS011;33336;36.728;-4.414;2024-01-27T20:29:59;17.15;;;10.07;;
47617;SDS011;33336;36.728;-4.414;2024-01-27T20:35:01;13.18;;;8.38;;
47617;SDS011;33336;36.728;-4.414;2024-01-27T20:40:07;20.05;;;13.85;;
47617;SDS011;33336;36.728;-4.414;2024-01-27T20:45:11;24.65;;;12.05;;
47617;SDS011;33336;36.728;-4.414;2024-01-27T20:50:14;18.90;;;10.38;;
47617;SDS011;33336;36.728;-4.414;2024-01-27T20:55:20;18.38;;;10.43;;
47617;SDS011;33336;36.728;-4.414;2024-01-27T21:00:23;17.10;;;10.23;;
47617;SDS011;33336;36.728;-4.414;2024-01-27T21:05:26;19.65;;;10.80;;
47617;SDS011;33336;36.728;-4.414;2024-01-27T21:10:30;15.23;;;9.80;;
47617;SDS011;33336;36.728;-4.414;2024-01-27T21:15:34;11.85;;;7.45;;
47617;SDS011;33336;36.728;-4.414;2024-01-27T21:20:37;14.50;;;8.30;;
47617;SDS011;33336;36.728;-4.414;2024-01-27T21:25:42;14.43;;;9.27;;
47617;SDS011;33336;36.728;-4.414;2024-01-27T21:30:45;13.45;;;8.98;;
47617;SDS011;33336;36.728;-4.414;2024-01-27T21:35:47;27.13;;;16.48;;
47617;SDS011;33336;36.728;-4.414;2024-01-27T21:40:51;18.35;;;9.95;;
47617;SDS011;33336;36.728;-4.414;2024-01-27T21:45:55;13.32;;;10.18;;
47617;SDS011;33336;36.728;-4.414;2024-01-27T21:50:58;14.27;;;8.63;;
47617;SDS011;33336;36.728;-4.414;2024-01-27T21:56:04;14.90;;;8.88;;
47617;SDS011;33336;36.728;-4.414;2024-01-27T22:01:07;16.35;;;8.98;;
47617;SDS011;33336;36.728;-4.414;2024-01-27T22:06:12;13.18;;;8.38;;
47617;SDS011;33336;36.728;-4.414;2024-01-27T22:11:16;15.57;;;8.27;;
47617;SDS011;33336;36.728;-4.414;2024-01-27T22:16:20;17.52;;;9.63;;
47617;SDS011;33336;36.728;-4.414;2024-01-27T22:21:24;17.50;;;8.88;;
47617;SDS011;33336;36.728;-4.414;2024-01-27T22:26:30;14.05;;;9.68;;
47617;SDS011;33336;36.728;-4.414;2024-01-27T22:31:32;19.52;;;9.57;;
47617;SDS011;33336;36.728;-4.414;2024-01-27T22:36:35;10.45;;;7.35;;
47617;SDS011;33336;36.728;-4.414;2024-01-27T22:41:39;13.85;;;7.88;;
47617;SDS011;33336;36.728;-4.414;2024-01-27T22:46:42;15.85;;;8.43;;
47617;SDS011;33336;36.728;-4.414;2024-01-27T22:51:45;14.32;;;10.80;;
47617;SDS011;33336;36.728;-4.414;2024-01-27T22:56:53;17.70;;;8.30;;
47617;SDS011;33336;36.728;-4.414;2024-01-27T23:01:55;13.70;;;8.60;;
47617;SDS011;33336;36.728;-4.414;2024-01-27T23:06:59;14.88;;;8.18;;
47617;SDS011;33336;36.728;-4.414;2024-01-27T23:12:04;14.88;;;8.52;;
47617;SDS011;33336;36.728;-4.414;2024-01-27T23:17:07;15.02;;;9.90;;
47617;SDS011;33336;36.728;-4.414;2024-01-27T23:22:10;14.75;;;8.05;;
47617;SDS011;33336;36.728;-4.414;2024-01-27T23:27:15;11.32;;;7.90;;
47617;SDS011;33336;36.728;-4.414;2024-01-27T23:32:17;15.40;;;8.68;;
47617;SDS011;33336;36.728;-4.414;2024-01-27T23:37:23;11.50;;;8.10;;
47617;SDS011;33336;36.728;-4.414;2024-01-27T23:42:27;15.80;;;9.93;;
47617;SDS011;33336;36.728;-4.414;2024-01-27T23:47:31;15.75;;;8.98;;
47617;SDS011;33336;36.728;-4.414;2024-01-27T23:52:35;15.05;;;10.13;;
47617;SDS011;33336;36.728;-4.414;2024-01-27T23:57:41;15.55;;;9.20;;
